createdAt,value
2022-12-11T00:00:57.725Z,-1.55
2022-12-11T00:02:29.454Z,-1.67
2022-12-11T00:04:02.501Z,-1.65
2022-12-11T00:05:34.206Z,-1.60
2022-12-11T00:07:07.681Z,-1.67
2022-12-11T00:08:39.347Z,-1.73
2022-12-11T00:10:10.950Z,-1.65
2022-12-11T00:11:42.686Z,-1.59
2022-12-11T00:13:14.315Z,-1.75
2022-12-11T00:14:45.910Z,-1.77
2022-12-11T00:16:20.337Z,-1.75
2022-12-11T00:17:54.162Z,-1.71
2022-12-11T00:19:27.163Z,-1.72
2022-12-11T00:21:02.525Z,-1.63
2022-12-11T00:22:34.185Z,-1.72
2022-12-11T00:24:06.540Z,-1.76
2022-12-11T00:25:41.413Z,-1.72
2022-12-11T00:27:13.099Z,-1.64
2022-12-11T00:28:44.850Z,-1.69
2022-12-11T00:30:16.565Z,-1.74
2022-12-11T00:31:48.219Z,-1.84
2022-12-11T00:33:19.859Z,-1.95
2022-12-11T00:34:52.913Z,-1.90
2022-12-11T00:36:28.097Z,-1.69
2022-12-11T00:38:03.056Z,-1.59
2022-12-11T00:39:34.738Z,-1.68
2022-12-11T00:41:06.367Z,-1.72
2022-12-11T00:42:38.017Z,-1.65
2022-12-11T00:44:10.159Z,-1.61
2022-12-11T00:45:42.606Z,-1.61
2022-12-11T00:47:14.258Z,-1.74
2022-12-11T00:48:46.343Z,-1.93
2022-12-11T00:50:19.431Z,-1.85
2022-12-11T00:51:51.047Z,-1.76
2022-12-11T00:53:22.723Z,-1.80
2022-12-11T00:54:54.371Z,-1.74
2022-12-11T00:56:26.231Z,-1.78
2022-12-11T00:57:58.426Z,-1.79
2022-12-11T00:59:30.040Z,-1.71
2022-12-11T01:01:06.124Z,-1.75
2022-12-11T01:02:37.816Z,-1.72
2022-12-11T01:04:09.495Z,-1.68
2022-12-11T01:05:42.547Z,-1.64
2022-12-11T01:07:14.166Z,-1.48
2022-12-11T01:08:46.146Z,-1.59
2022-12-11T01:10:26.726Z,-1.65
2022-12-11T01:11:58.454Z,-1.75
2022-12-11T01:13:30.121Z,-1.75
2022-12-11T01:15:01.866Z,-1.70
2022-12-11T01:16:33.461Z,-1.52
2022-12-11T01:18:05.207Z,-1.55
2022-12-11T01:19:37.335Z,-1.48
2022-12-11T01:21:11.334Z,-1.54
2022-12-11T01:22:42.955Z,-1.47
2022-12-11T01:24:14.570Z,-1.52
2022-12-11T01:25:46.213Z,-1.43
2022-12-11T01:27:17.838Z,-1.41
2022-12-11T01:28:49.619Z,-1.43
2022-12-11T01:30:22.699Z,-1.38
2022-12-11T01:31:54.311Z,-1.42
2022-12-11T01:33:26.133Z,-1.46
2022-12-11T01:34:57.791Z,-1.56
2022-12-11T01:36:30.783Z,-1.38
2022-12-11T01:38:02.886Z,-1.34
2022-12-11T01:39:34.509Z,-1.38
2022-12-11T01:41:06.168Z,-1.54
2022-12-11T01:42:37.852Z,-1.60
2022-12-11T01:44:42.585Z,-1.43
2022-12-11T01:46:14.239Z,-1.39
2022-12-11T01:47:45.881Z,-1.44
2022-12-11T01:49:17.785Z,-1.52
2022-12-11T01:50:50.291Z,-1.48
2022-12-11T01:52:23.712Z,-1.44
2022-12-11T01:53:57.333Z,-1.53
2022-12-11T01:55:28.948Z,-1.59
2022-12-11T01:57:01.589Z,-1.61
2022-12-11T01:58:35.374Z,-1.57
2022-12-11T02:00:08.200Z,-1.51
2022-12-11T02:01:40.965Z,-1.48
2022-12-11T02:03:12.684Z,-1.39
2022-12-11T02:04:44.337Z,-1.45
2022-12-11T02:06:30.115Z,-1.44
2022-12-11T02:08:03.385Z,-1.43
2022-12-11T02:09:35.725Z,-1.52
2022-12-11T02:11:10.152Z,-1.58
2022-12-11T02:12:46.540Z,-1.55
2022-12-11T02:14:20.434Z,-1.56
2022-12-11T02:15:56.297Z,-1.63
2022-12-11T02:17:30.131Z,-1.67
2022-12-11T02:19:07.853Z,-1.73
2022-12-11T02:20:42.572Z,-1.82
2022-12-11T02:22:17.007Z,-1.73
2022-12-11T02:23:58.830Z,-1.80
2022-12-11T02:25:32.663Z,-1.79
2022-12-11T02:27:14.783Z,-1.89
2022-12-11T02:28:49.093Z,-1.96
2022-12-11T02:30:20.797Z,-1.89
2022-12-11T02:31:54.485Z,-1.95
2022-12-11T02:33:29.960Z,-1.96
2022-12-11T02:35:04.856Z,-2.03
2022-12-11T02:36:38.925Z,-1.85
2022-12-11T02:38:12.421Z,-1.85
2022-12-11T02:39:44.023Z,-1.94
2022-12-11T02:41:15.638Z,-1.88
2022-12-11T02:42:47.583Z,-2.06
2022-12-11T02:44:30.409Z,-2.20
2022-12-11T02:46:02.392Z,-2.26
2022-12-11T02:47:34.129Z,-2.38
2022-12-11T02:49:05.841Z,-2.55
2022-12-11T02:50:38.975Z,-2.43
2022-12-11T02:52:11.298Z,-2.42
2022-12-11T02:53:43.026Z,-2.40
2022-12-11T02:55:15.016Z,-2.54
2022-12-11T02:56:48.101Z,-2.54
2022-12-11T02:58:21.544Z,-2.69
2022-12-11T02:59:54.518Z,-2.73
2022-12-11T03:01:26.182Z,-2.87
2022-12-11T03:02:57.913Z,-2.87
2022-12-11T03:04:29.673Z,-2.79
2022-12-11T03:06:01.287Z,-2.71
2022-12-11T03:07:34.593Z,-2.68
2022-12-11T03:09:06.663Z,-2.72
2022-12-11T03:10:38.390Z,-2.80
2022-12-11T03:12:11.682Z,-2.75
2022-12-11T03:13:43.299Z,-2.85
2022-12-11T03:15:18.396Z,-2.79
2022-12-11T03:16:55.434Z,-2.72
2022-12-11T03:18:29.805Z,-2.87
2022-12-11T03:20:05.119Z,-2.84
2022-12-11T03:21:40.370Z,-2.85
2022-12-11T03:23:16.654Z,-2.87
2022-12-11T03:24:50.658Z,-2.88
2022-12-11T03:26:22.283Z,-2.92
2022-12-11T03:27:56.259Z,-2.91
2022-12-11T03:29:31.250Z,-2.89
2022-12-11T03:31:06.823Z,-2.85
2022-12-11T03:32:39.788Z,-2.73
2022-12-11T03:34:13.746Z,-2.70
2022-12-11T03:35:47.423Z,-2.66
2022-12-11T03:37:19.026Z,-2.69
2022-12-11T03:38:51.634Z,-2.78
2022-12-11T03:40:23.276Z,-2.84
2022-12-11T03:41:54.889Z,-2.80
2022-12-11T03:43:26.545Z,-2.98
2022-12-11T03:44:58.234Z,-2.95
2022-12-11T03:46:32.364Z,-2.90
2022-12-11T03:48:04.509Z,-2.93
2022-12-11T03:49:38.471Z,-2.98
2022-12-11T03:51:10.215Z,-2.95
2022-12-11T03:52:45.777Z,-3.00
2022-12-11T03:54:18.045Z,-2.88
2022-12-11T03:55:49.697Z,-2.89
2022-12-11T03:57:22.350Z,-2.91
2022-12-11T03:58:54.256Z,-2.85
2022-12-11T04:00:25.891Z,-2.88
2022-12-11T04:01:59.035Z,-2.89
2022-12-11T04:03:30.748Z,-2.93
2022-12-11T04:05:02.378Z,-2.85
2022-12-11T04:06:34.065Z,-3.04
2022-12-11T04:08:05.855Z,-3.21
2022-12-11T04:09:37.510Z,-2.99
2022-12-11T04:11:28.795Z,-3.17
2022-12-11T04:13:00.523Z,-3.13
2022-12-11T04:14:50.688Z,-3.15
2022-12-11T04:16:22.342Z,-3.15
2022-12-11T04:18:13.859Z,-3.11
2022-12-11T04:20:04.344Z,-3.18
2022-12-11T04:21:54.810Z,-3.24
2022-12-11T04:23:45.350Z,-3.15
2022-12-11T04:25:17.015Z,-3.09
2022-12-11T04:26:48.745Z,-3.18
2022-12-11T04:28:20.358Z,-3.26
2022-12-11T04:29:52.218Z,-3.47
2022-12-11T04:31:23.960Z,-3.29
2022-12-11T04:32:56.963Z,-3.21
2022-12-11T04:34:28.807Z,-3.30
2022-12-11T04:36:00.763Z,-3.41
2022-12-11T04:37:32.442Z,-3.28
2022-12-11T04:39:04.288Z,-3.49
2022-12-11T04:40:35.925Z,-3.43
2022-12-11T04:42:07.547Z,-3.24
2022-12-11T04:43:39.188Z,-3.25
2022-12-11T04:45:11.812Z,-3.16
2022-12-11T04:46:44.656Z,-3.60
2022-12-11T04:48:17.762Z,-3.45
2022-12-11T04:49:49.428Z,-3.25
2022-12-11T04:51:21.123Z,-3.34
2022-12-11T04:52:54.476Z,-3.51
2022-12-11T04:54:26.133Z,-3.36
2022-12-11T04:55:57.878Z,-3.38
2022-12-11T04:57:29.497Z,-3.52
2022-12-11T04:59:01.140Z,-3.45
2022-12-11T05:00:32.759Z,-3.27
2022-12-11T05:02:04.505Z,-3.24
2022-12-11T05:03:37.614Z,-3.26
2022-12-11T05:05:10.409Z,-3.33
2022-12-11T05:06:42.252Z,-3.43
2022-12-11T05:08:13.918Z,-3.48
2022-12-11T05:09:45.600Z,-3.64
2022-12-11T05:11:17.984Z,-3.65
2022-12-11T05:12:49.597Z,-3.73
2022-12-11T05:14:21.362Z,-3.73
2022-12-11T05:15:53.039Z,-3.78
2022-12-11T05:17:24.696Z,-3.92
2022-12-11T05:18:57.699Z,-3.91
2022-12-11T05:20:29.374Z,-4.12
2022-12-11T05:22:01.024Z,-4.14
2022-12-11T05:23:33.093Z,-4.18
2022-12-11T05:25:05.541Z,-4.18
2022-12-11T05:26:37.161Z,-4.29
2022-12-11T05:28:08.785Z,-4.23
2022-12-11T05:29:40.591Z,-4.03
2022-12-11T05:31:12.944Z,-4.14
2022-12-11T05:32:44.624Z,-4.04
2022-12-11T05:34:17.684Z,-4.09
2022-12-11T05:35:49.381Z,-4.17
2022-12-11T05:37:21.033Z,-4.33
2022-12-11T05:38:53.083Z,-4.30
2022-12-11T05:40:24.718Z,-4.64
2022-12-11T05:41:56.352Z,-4.54
2022-12-11T05:43:28.505Z,-4.55
2022-12-11T05:45:00.119Z,-4.56
2022-12-11T05:46:31.799Z,-4.62
2022-12-11T05:48:03.701Z,-4.55
2022-12-11T05:49:36.760Z,-4.62
2022-12-11T05:51:08.543Z,-4.43
2022-12-11T05:52:40.220Z,-4.49
2022-12-11T05:54:11.884Z,-4.43
2022-12-11T05:55:43.492Z,-4.48
2022-12-11T05:57:15.139Z,-4.59
2022-12-11T05:58:47.193Z,-4.56
2022-12-11T06:00:18.860Z,-4.53
2022-12-11T06:01:50.649Z,-4.51
2022-12-11T06:03:22.373Z,-4.46
2022-12-11T06:04:55.393Z,-4.44
2022-12-11T06:06:27.199Z,-4.59
2022-12-11T06:07:58.842Z,-4.67
2022-12-11T06:09:30.464Z,-4.84
2022-12-11T06:11:02.149Z,-4.94
2022-12-11T06:12:33.766Z,-5.01
2022-12-11T06:14:05.448Z,-5.21
2022-12-11T06:15:37.046Z,-5.19
2022-12-11T06:17:08.675Z,-4.96
2022-12-11T06:18:41.041Z,-4.82
2022-12-11T06:20:15.438Z,-4.73
2022-12-11T06:21:48.850Z,-4.66
2022-12-11T06:23:20.523Z,-4.81
2022-12-11T06:24:52.192Z,-4.77
2022-12-11T06:26:23.918Z,-4.76
2022-12-11T06:27:55.545Z,-4.82
2022-12-11T06:29:27.241Z,-5.05
2022-12-11T06:30:58.903Z,-4.81
2022-12-11T06:32:30.693Z,-4.73
2022-12-11T06:34:02.358Z,-4.66
2022-12-11T06:35:41.629Z,-4.72
2022-12-11T06:37:15.152Z,-4.92
2022-12-11T06:38:47.735Z,-5.12
2022-12-11T06:40:19.475Z,-5.28
2022-12-11T06:41:51.158Z,-5.12
2022-12-11T06:43:22.927Z,-5.07
2022-12-11T06:44:55.110Z,-5.23
2022-12-11T06:46:26.749Z,-5.44
2022-12-11T06:47:58.394Z,-5.41
2022-12-11T06:49:30.507Z,-5.25
2022-12-11T06:51:06.772Z,-5.13
2022-12-11T06:52:38.442Z,-5.27
2022-12-11T06:54:10.186Z,-5.36
2022-12-11T06:55:41.888Z,-5.39
2022-12-11T06:57:13.571Z,-5.38
2022-12-11T06:58:45.205Z,-5.32
2022-12-11T07:00:17.081Z,-5.25
2022-12-11T07:01:48.800Z,-5.46
2022-12-11T07:03:20.531Z,-5.36
2022-12-11T07:04:55.188Z,-5.29
2022-12-11T07:06:28.577Z,-5.25
2022-12-11T07:08:00.283Z,-5.15
2022-12-11T07:09:31.971Z,-5.12
2022-12-11T07:11:04.866Z,-5.23
2022-12-11T07:12:36.501Z,-5.22
2022-12-11T07:14:08.930Z,-5.11
2022-12-11T07:15:40.709Z,-5.10
2022-12-11T07:17:12.715Z,-5.29
2022-12-11T07:18:46.941Z,-5.29
2022-12-11T07:20:18.571Z,-5.38
2022-12-11T07:21:51.655Z,-5.42
2022-12-11T07:23:23.331Z,-5.61
2022-12-11T07:24:54.950Z,-5.60
2022-12-11T07:26:26.674Z,-5.57
2022-12-11T07:27:58.291Z,-5.62
2022-12-11T07:29:29.958Z,-5.62
2022-12-11T07:31:05.231Z,-5.70
2022-12-11T07:32:36.954Z,-5.72
2022-12-11T07:34:08.643Z,-5.57
2022-12-11T07:35:40.396Z,-5.47
2022-12-11T07:37:13.379Z,-5.55
2022-12-11T07:38:45.071Z,-5.72
2022-12-11T07:40:16.824Z,-5.78
2022-12-11T07:41:48.503Z,-5.67
2022-12-11T07:43:20.177Z,-5.54
2022-12-11T07:44:51.845Z,-5.54
2022-12-11T07:46:25.109Z,-5.66
2022-12-11T07:47:56.740Z,-5.87
2022-12-11T07:49:28.620Z,-5.80
2022-12-11T07:51:08.146Z,-5.80
2022-12-11T07:52:41.284Z,-5.75
2022-12-11T07:54:16.543Z,-5.52
2022-12-11T07:55:48.239Z,-5.46
2022-12-11T07:57:19.887Z,-5.49
2022-12-11T07:58:51.549Z,-5.39
2022-12-11T08:00:23.232Z,-5.28
2022-12-11T08:01:54.917Z,-5.16
2022-12-11T08:03:26.640Z,-5.27
2022-12-11T08:04:58.260Z,-5.42
2022-12-11T08:06:30.705Z,-5.42
2022-12-11T08:08:03.955Z,-5.37
2022-12-11T08:09:35.608Z,-5.43
2022-12-11T08:11:08.355Z,-5.58
2022-12-11T08:12:39.976Z,-5.47
2022-12-11T08:14:14.371Z,-5.25
2022-12-11T08:15:45.987Z,-5.16
2022-12-11T08:17:17.663Z,-5.22
2022-12-11T08:18:49.431Z,-4.97
2022-12-11T08:20:21.027Z,-4.98
2022-12-11T08:21:52.637Z,-5.21
2022-12-11T08:23:25.638Z,-5.19
2022-12-11T08:24:57.379Z,-4.98
2022-12-11T08:26:29.931Z,-5.02
2022-12-11T08:28:01.586Z,-4.97
2022-12-11T08:29:33.238Z,-4.94
2022-12-11T08:31:05.192Z,-5.02
2022-12-11T08:32:36.930Z,-5.01
2022-12-11T08:34:08.648Z,-4.67
2022-12-11T08:35:40.802Z,-4.86
2022-12-11T08:37:13.586Z,-4.96
2022-12-11T08:38:46.989Z,-5.08
2022-12-11T08:40:18.690Z,-4.79
2022-12-11T08:41:50.309Z,-4.85
2022-12-11T08:43:22.056Z,-4.81
2022-12-11T08:44:53.720Z,-4.69
2022-12-11T08:46:26.061Z,-4.74
2022-12-11T08:47:58.365Z,-4.69
2022-12-11T08:49:34.391Z,-4.67
2022-12-11T08:51:08.439Z,-4.64
2022-12-11T08:52:40.051Z,-4.52
2022-12-11T08:54:13.284Z,-4.68
2022-12-11T08:55:44.959Z,-4.70
2022-12-11T08:57:16.864Z,-4.69
2022-12-11T08:58:48.709Z,-4.67
2022-12-11T09:00:20.343Z,-4.61
2022-12-11T09:01:52.109Z,-4.62
2022-12-11T09:03:23.778Z,-4.64
2022-12-11T09:04:55.401Z,-4.34
2022-12-11T09:06:27.839Z,-4.36
2022-12-11T09:07:59.485Z,-4.55
2022-12-11T09:09:32.522Z,-4.39
2022-12-11T09:11:05.027Z,-4.42
2022-12-11T09:12:37.042Z,-4.31
2022-12-11T09:14:08.858Z,-4.19
2022-12-11T09:15:41.235Z,-4.28
2022-12-11T09:17:12.840Z,-4.39
2022-12-11T09:18:45.251Z,-4.31
2022-12-11T09:20:16.912Z,-4.20
2022-12-11T09:21:48.619Z,-4.16
2022-12-11T09:23:20.436Z,-4.17
2022-12-11T09:24:53.436Z,-4.25
2022-12-11T09:26:25.234Z,-4.27
2022-12-11T09:27:56.856Z,-4.29
2022-12-11T09:29:28.542Z,-4.25
2022-12-11T09:31:00.305Z,-4.13
2022-12-11T09:32:32.020Z,-4.08
2022-12-11T09:34:04.604Z,-3.98
2022-12-11T09:35:37.339Z,-4.01
2022-12-11T09:37:08.987Z,-4.03
2022-12-11T09:38:40.639Z,-3.97
2022-12-11T09:40:13.891Z,-3.92
2022-12-11T09:41:52.461Z,-3.90
2022-12-11T09:43:36.538Z,-3.90
2022-12-11T09:45:11.411Z,-3.89
2022-12-11T09:46:43.356Z,-3.80
2022-12-11T09:48:15.431Z,-3.80
2022-12-11T09:49:47.313Z,-3.76
2022-12-11T09:51:21.426Z,-3.70
2022-12-11T09:53:03.079Z,-3.69
2022-12-11T09:54:34.735Z,-3.65
2022-12-11T09:56:13.821Z,-3.64
2022-12-11T09:57:48.867Z,-3.56
2022-12-11T09:59:23.473Z,-3.47
2022-12-11T10:00:57.195Z,-3.55
2022-12-11T10:02:31.865Z,-3.48
2022-12-11T10:04:10.602Z,-3.42
2022-12-11T10:05:45.357Z,-3.38
2022-12-11T10:07:18.088Z,-3.36
2022-12-11T10:08:56.190Z,-3.24
2022-12-11T10:10:33.926Z,-3.26
2022-12-11T10:12:15.089Z,-3.19
2022-12-11T10:13:49.361Z,-3.13
2022-12-11T10:15:26.662Z,-3.11
2022-12-11T10:17:00.011Z,-3.21
2022-12-11T10:18:31.950Z,-3.20
2022-12-11T10:20:07.827Z,-3.07
2022-12-11T10:21:40.470Z,-2.96
2022-12-11T10:23:19.036Z,-2.98
2022-12-11T10:25:10.712Z,-2.98
2022-12-11T10:26:43.131Z,-2.99
2022-12-11T10:28:16.733Z,-2.96
2022-12-11T10:29:48.844Z,-2.89
2022-12-11T10:31:24.356Z,-2.84
2022-12-11T10:33:00.081Z,-2.84
2022-12-11T10:34:34.662Z,-2.89
2022-12-11T10:36:06.896Z,-2.95
2022-12-11T10:37:38.810Z,-2.96
2022-12-11T10:39:12.628Z,-2.93
2022-12-11T10:40:49.332Z,-2.83
2022-12-11T10:42:23.136Z,-2.78
2022-12-11T10:43:56.298Z,-2.79
2022-12-11T10:45:27.984Z,-2.91
2022-12-11T10:47:03.879Z,-2.88
2022-12-11T10:48:35.517Z,-2.80
2022-12-11T10:50:07.558Z,-2.82
2022-12-11T10:51:39.172Z,-2.86
2022-12-11T10:53:20.067Z,-2.74
2022-12-11T10:54:59.917Z,-2.79
2022-12-11T10:56:32.703Z,-2.75
2022-12-11T10:58:05.304Z,-2.74
2022-12-11T10:59:40.685Z,-2.73
2022-12-11T11:01:14.930Z,-2.62
2022-12-11T11:02:46.741Z,-2.66
2022-12-11T11:04:20.594Z,-2.64
2022-12-11T11:06:02.325Z,-2.52
2022-12-11T11:07:34.409Z,-2.38
2022-12-11T11:09:28.218Z,-2.56
2022-12-11T11:11:00.525Z,-2.49
2022-12-11T11:12:37.684Z,-2.48
2022-12-11T11:14:14.329Z,-2.57
2022-12-11T11:15:47.456Z,-2.73
2022-12-11T11:17:19.236Z,-2.54
2022-12-11T11:18:53.328Z,-2.49
2022-12-11T11:20:26.253Z,-2.23
2022-12-11T11:21:59.195Z,-2.07
2022-12-11T11:23:30.975Z,-2.12
2022-12-11T11:25:04.941Z,-2.49
2022-12-11T11:27:11.205Z,-2.73
2022-12-11T11:28:29.407Z,-2.86
2022-12-11T11:30:01.778Z,-2.89
2022-12-11T11:31:34.979Z,-2.83
2022-12-11T11:33:12.625Z,-2.92
2022-12-11T11:34:45.510Z,-2.79
2022-12-11T11:36:22.221Z,-2.70
2022-12-11T11:37:57.893Z,-2.79
2022-12-11T11:39:32.351Z,-2.85
2022-12-11T11:41:14.691Z,-2.79
2022-12-11T11:42:49.530Z,-2.65
2022-12-11T11:44:25.339Z,-2.70
2022-12-11T11:45:59.708Z,-2.74
2022-12-11T11:47:34.726Z,-2.77
2022-12-11T11:49:10.055Z,-2.79
2022-12-11T11:50:44.987Z,-2.72
2022-12-11T11:52:19.491Z,-2.61
2022-12-11T11:53:51.825Z,-2.55
2022-12-11T11:55:30.125Z,-2.56
2022-12-11T11:57:03.108Z,-2.52
2022-12-11T11:58:38.252Z,-2.55
2022-12-11T12:00:17.575Z,-2.61
2022-12-11T12:01:56.334Z,-2.56
2022-12-11T12:03:29.617Z,-2.56
2022-12-11T12:05:01.823Z,-2.44
2022-12-11T12:06:50.482Z,-2.59
2022-12-11T12:08:30.200Z,-2.51
2022-12-11T12:10:06.507Z,-2.45
2022-12-11T12:11:40.320Z,-2.44
2022-12-11T12:13:44.801Z,-2.49
2022-12-11T12:15:18.441Z,-2.60
2022-12-11T12:16:54.197Z,-2.56
2022-12-11T12:18:31.877Z,-2.63
2022-12-11T12:20:08.945Z,-2.60
2022-12-11T12:21:42.180Z,-2.66
2022-12-11T12:23:36.276Z,-2.68
2022-12-11T12:25:15.869Z,-2.65
2022-12-11T12:26:50.389Z,-2.62
2022-12-11T12:28:28.924Z,-2.62
2022-12-11T12:30:03.428Z,-2.55
2022-12-11T12:31:42.841Z,-2.47
2022-12-11T12:33:20.959Z,-2.45
2022-12-11T12:35:02.694Z,-2.55
2022-12-11T12:36:37.662Z,-2.52
2022-12-11T12:38:12.975Z,-2.45
2022-12-11T12:39:50.128Z,-2.40
2022-12-11T12:41:24.052Z,-2.32
2022-12-11T12:43:00.378Z,-2.28
2022-12-11T12:44:33.271Z,-2.24
2022-12-11T12:46:08.923Z,-2.25
2022-12-11T12:47:40.929Z,-2.23
2022-12-11T12:49:14.435Z,-2.28
2022-12-11T12:50:48.796Z,-2.34
2022-12-11T12:52:21.891Z,-2.37
2022-12-11T12:53:55.617Z,-2.38
2022-12-11T12:55:28.925Z,-2.48
2022-12-11T12:57:00.946Z,-2.49
2022-12-11T12:58:41.346Z,-2.56
2022-12-11T13:00:13.808Z,-2.57
2022-12-11T13:01:46.719Z,-2.60
2022-12-11T13:03:22.723Z,-2.55
2022-12-11T13:05:07.590Z,-2.47
2022-12-11T13:06:41.802Z,-2.41
2022-12-11T13:08:13.746Z,-2.39
2022-12-11T13:09:56.191Z,-2.46
2022-12-11T13:11:31.792Z,-2.45
2022-12-11T13:13:04.126Z,-2.52
2022-12-11T13:14:35.811Z,-2.58
2022-12-11T13:16:24.324Z,-2.70
2022-12-11T13:17:56.006Z,-2.72
2022-12-11T13:19:27.946Z,-2.74
2022-12-11T13:20:59.571Z,-2.68
2022-12-11T13:22:32.644Z,-2.71
2022-12-11T13:24:14.176Z,-2.71
2022-12-11T13:25:48.293Z,-2.72
2022-12-11T13:27:23.676Z,-2.73
2022-12-11T13:28:55.364Z,-2.71
2022-12-11T13:30:28.462Z,-2.69
2022-12-11T13:32:01.398Z,-2.71
2022-12-11T13:33:33.146Z,-2.56
2022-12-11T13:35:06.017Z,-2.42
2022-12-11T13:36:38.957Z,-2.19
2022-12-11T13:38:15.874Z,-2.04
2022-12-11T13:39:47.765Z,-2.10
2022-12-11T13:41:20.240Z,-2.35
2022-12-11T13:42:52.846Z,-2.17
2022-12-11T13:44:25.801Z,-2.09
2022-12-11T13:45:57.897Z,-1.93
2022-12-11T13:47:29.561Z,-2.03
2022-12-11T13:49:01.923Z,-1.97
2022-12-11T13:50:34.154Z,-2.08
2022-12-11T13:52:06.107Z,-1.73
2022-12-11T13:53:39.090Z,-1.41
2022-12-11T13:55:17.487Z,-1.36
2022-12-11T13:56:56.821Z,-1.19
2022-12-11T13:58:28.899Z,-1.42
2022-12-11T14:00:00.657Z,-1.31
2022-12-11T14:01:32.763Z,-1.50
2022-12-11T14:03:07.378Z,-1.44
2022-12-11T14:04:39.050Z,-1.19
2022-12-11T14:06:16.596Z,-1.36
2022-12-11T14:07:52.150Z,-1.38
2022-12-11T14:09:26.576Z,-1.45
2022-12-11T14:10:58.250Z,-1.57
2022-12-11T14:12:30.383Z,-1.82
2022-12-11T14:14:03.494Z,-1.75
2022-12-11T14:15:35.588Z,-1.71
2022-12-11T14:17:11.370Z,-1.74
2022-12-11T14:18:43.018Z,-1.93
2022-12-11T14:20:17.416Z,-2.10
2022-12-11T14:22:04.658Z,-2.01
2022-12-11T14:23:36.703Z,-1.91
2022-12-11T14:25:19.107Z,-1.88
2022-12-11T14:26:51.279Z,-1.82
2022-12-11T14:28:23.389Z,-1.91
2022-12-11T14:29:55.344Z,-1.98
2022-12-11T14:31:28.108Z,-2.04
2022-12-11T14:33:01.267Z,-2.05
2022-12-11T14:34:35.809Z,-2.10
2022-12-11T14:36:08.242Z,-2.22
2022-12-11T14:37:39.914Z,-2.36
2022-12-11T14:39:13.540Z,-2.39
2022-12-11T14:40:48.346Z,-2.44
2022-12-11T14:42:20.855Z,-2.42
2022-12-11T14:43:53.796Z,-2.41
2022-12-11T14:45:30.284Z,-2.53
2022-12-11T14:47:03.146Z,-2.51
2022-12-11T14:48:36.242Z,-2.49
2022-12-11T14:50:08.738Z,-2.56
2022-12-11T14:51:40.574Z,-2.55
2022-12-11T14:53:15.407Z,-2.57
2022-12-11T14:54:52.751Z,-2.68
2022-12-11T14:56:26.541Z,-2.74
2022-12-11T14:58:00.180Z,-2.75
2022-12-11T14:59:32.476Z,-2.71
2022-12-11T15:01:05.433Z,-2.68
2022-12-11T15:02:37.226Z,-2.62
2022-12-11T15:04:20.052Z,-2.66
2022-12-11T15:05:52.654Z,-2.63
2022-12-11T15:07:24.304Z,-2.77
2022-12-11T15:08:55.991Z,-2.79
2022-12-11T15:10:31.442Z,-2.86
2022-12-11T15:12:10.461Z,-2.95
2022-12-11T15:13:49.580Z,-3.01
2022-12-11T15:15:21.243Z,-3.06
2022-12-11T15:16:54.402Z,-3.05
2022-12-11T15:18:27.373Z,-2.97
2022-12-11T15:20:02.789Z,-2.94
2022-12-11T15:21:38.736Z,-3.05
2022-12-11T15:23:15.511Z,-3.00
2022-12-11T15:24:51.205Z,-2.99
2022-12-11T15:26:33.063Z,-3.01
2022-12-11T15:28:22.794Z,-3.05
2022-12-11T15:29:54.577Z,-3.00
2022-12-11T15:31:27.224Z,-3.03
2022-12-11T15:33:15.613Z,-3.07
2022-12-11T15:34:48.290Z,-3.14
2022-12-11T15:36:23.622Z,-3.03
2022-12-11T15:37:56.120Z,-3.14
2022-12-11T15:39:27.794Z,-3.18
2022-12-11T15:40:59.482Z,-3.20
2022-12-11T15:42:32.084Z,-3.30
2022-12-11T15:44:17.801Z,-3.30
2022-12-11T15:45:52.413Z,-3.19
2022-12-11T15:47:25.048Z,-3.27
2022-12-11T15:48:56.916Z,-3.32
2022-12-11T15:50:28.902Z,-3.37
2022-12-11T15:52:00.561Z,-3.49
2022-12-11T15:53:32.231Z,-3.36
2022-12-11T15:55:04.760Z,-3.42
2022-12-11T15:56:36.391Z,-3.56
2022-12-11T15:58:09.426Z,-3.58
2022-12-11T15:59:42.600Z,-3.74
2022-12-11T16:01:14.417Z,-3.84
2022-12-11T16:02:46.256Z,-3.71
2022-12-11T16:04:17.952Z,-3.68
2022-12-11T16:05:49.782Z,-3.62
2022-12-11T16:07:22.415Z,-3.82
2022-12-11T16:08:54.058Z,-3.80
2022-12-11T16:10:26.139Z,-3.80
2022-12-11T16:11:57.820Z,-3.89
2022-12-11T16:13:29.553Z,-3.94
2022-12-11T16:15:02.659Z,-3.92
2022-12-11T16:16:34.381Z,-4.01
2022-12-11T16:18:07.122Z,-4.03
2022-12-11T16:19:38.853Z,-4.04
2022-12-11T16:21:10.488Z,-4.03
2022-12-11T16:22:42.127Z,-4.02
2022-12-11T16:24:13.846Z,-3.96
2022-12-11T16:25:45.871Z,-3.98
2022-12-11T16:27:22.939Z,-4.08
2022-12-11T16:28:54.960Z,-4.12
2022-12-11T16:30:28.454Z,-4.22
2022-12-11T16:32:00.155Z,-4.29
2022-12-11T16:33:31.828Z,-4.25
2022-12-11T16:35:03.913Z,-4.21
2022-12-11T16:36:35.585Z,-4.29
2022-12-11T16:38:07.800Z,-4.20
2022-12-11T16:39:39.588Z,-4.21
2022-12-11T16:41:11.320Z,-4.19
2022-12-11T16:42:43.207Z,-4.31
2022-12-11T16:44:19.025Z,-4.19
2022-12-11T16:46:02.435Z,-4.14
2022-12-11T16:47:34.181Z,-4.19
2022-12-11T16:49:05.868Z,-4.31
2022-12-11T16:50:39.829Z,-4.39
2022-12-11T16:52:18.991Z,-4.53
2022-12-11T16:53:53.691Z,-4.56
2022-12-11T16:55:25.421Z,-4.79
2022-12-11T16:56:59.758Z,-4.57
2022-12-11T16:58:31.409Z,-4.47
2022-12-11T17:00:03.589Z,-4.28
2022-12-11T17:01:36.661Z,-4.38
2022-12-11T17:03:08.354Z,-4.37
2022-12-11T17:04:40.156Z,-4.33
2022-12-11T17:06:13.421Z,-4.27
2022-12-11T17:07:45.109Z,-4.32
2022-12-11T17:09:16.798Z,-4.33
2022-12-11T17:10:48.424Z,-4.35
2022-12-11T17:12:25.785Z,-4.44
2022-12-11T17:13:58.186Z,-4.44
2022-12-11T17:15:29.908Z,-4.52
2022-12-11T17:17:09.213Z,-4.53
2022-12-11T17:18:40.869Z,-4.55
2022-12-11T17:20:12.542Z,-4.58
2022-12-11T17:21:49.886Z,-4.45
2022-12-11T17:23:26.265Z,-4.46
2022-12-11T17:24:58.011Z,-4.57
2022-12-11T17:26:29.646Z,-4.52
2022-12-11T17:28:01.360Z,-4.64
2022-12-11T17:29:32.978Z,-4.67
2022-12-11T17:31:05.000Z,-4.58
2022-12-11T17:32:38.041Z,-4.60
2022-12-11T17:34:09.683Z,-4.55
2022-12-11T17:35:41.340Z,-4.58
2022-12-11T17:37:13.028Z,-4.57
2022-12-11T17:38:44.702Z,-4.60
2022-12-11T17:40:16.449Z,-4.61
2022-12-11T17:41:48.103Z,-4.62
2022-12-11T17:43:19.746Z,-4.74
2022-12-11T17:44:51.414Z,-4.67
2022-12-11T17:46:23.174Z,-4.67
2022-12-11T17:47:56.311Z,-4.64
2022-12-11T17:49:27.979Z,-4.76
2022-12-11T17:51:02.292Z,-4.85
2022-12-11T17:52:36.403Z,-4.85
2022-12-11T17:54:10.029Z,-4.78
2022-12-11T17:55:44.924Z,-4.71
2022-12-11T17:57:16.570Z,-4.82
2022-12-11T17:58:48.400Z,-5.11
2022-12-11T18:00:20.119Z,-5.03
2022-12-11T18:01:51.797Z,-4.92
2022-12-11T18:03:25.037Z,-4.98
2022-12-11T18:04:56.667Z,-4.86
2022-12-11T18:06:28.515Z,-4.97
2022-12-11T18:08:00.295Z,-4.94
2022-12-11T18:09:32.013Z,-4.88
2022-12-11T18:11:06.776Z,-4.82
2022-12-11T18:12:38.407Z,-4.78
2022-12-11T18:14:15.279Z,-4.77
2022-12-11T18:15:59.354Z,-4.75
2022-12-11T18:17:31.078Z,-4.91
2022-12-11T18:19:04.146Z,-4.86
2022-12-11T18:20:36.008Z,-4.85
2022-12-11T18:22:07.673Z,-4.80
2022-12-11T18:23:39.287Z,-4.86
2022-12-11T18:25:11.836Z,-4.86
2022-12-11T18:26:45.703Z,-4.95
2022-12-11T18:28:17.445Z,-5.08
2022-12-11T18:29:49.060Z,-5.13
2022-12-11T18:31:21.072Z,-5.11
2022-12-11T18:32:55.732Z,-5.15
2022-12-11T18:34:28.735Z,-5.07
2022-12-11T18:36:00.366Z,-5.16
2022-12-11T18:37:32.023Z,-5.10
2022-12-11T18:39:03.844Z,-5.07
2022-12-11T18:40:35.718Z,-5.10
2022-12-11T18:42:32.443Z,-5.09
2022-12-11T18:43:59.575Z,-5.44
2022-12-11T18:45:31.432Z,-5.06
2022-12-11T18:47:03.187Z,-4.87
2022-12-11T18:48:34.944Z,-4.83
2022-12-11T18:50:10.649Z,-4.94
2022-12-11T18:51:44.678Z,-4.98
2022-12-11T18:53:17.056Z,-5.01
2022-12-11T18:54:49.197Z,-5.04
2022-12-11T18:56:23.685Z,-5.09
2022-12-11T18:57:55.338Z,-5.20
2022-12-11T18:59:27.054Z,-5.16
2022-12-11T19:01:01.934Z,-5.29
2022-12-11T19:02:33.612Z,-5.25
2022-12-11T19:04:10.460Z,-5.25
2022-12-11T19:05:46.475Z,-5.26
2022-12-11T19:07:18.114Z,-5.36
2022-12-11T19:08:49.874Z,-5.40
2022-12-11T19:10:21.480Z,-5.38
2022-12-11T19:11:53.611Z,-5.35
2022-12-11T19:13:25.268Z,-5.35
2022-12-11T19:14:56.918Z,-5.48
2022-12-11T19:16:29.863Z,-5.39
2022-12-11T19:18:01.551Z,-5.30
2022-12-11T19:19:33.285Z,-5.38
2022-12-11T19:21:12.510Z,-5.33
2022-12-11T19:22:47.144Z,-5.41
2022-12-11T19:24:20.058Z,-5.38
2022-12-11T19:25:51.718Z,-5.45
2022-12-11T19:27:23.359Z,-5.40
2022-12-11T19:28:56.926Z,-5.42
2022-12-11T19:30:28.649Z,-5.46
2022-12-11T19:32:01.401Z,-5.38
2022-12-11T19:33:33.006Z,-5.33
2022-12-11T19:35:05.170Z,-5.38
2022-12-11T19:36:38.190Z,-5.40
2022-12-11T19:38:09.879Z,-5.38
2022-12-11T19:39:41.576Z,-5.38
2022-12-11T19:41:17.154Z,-5.44
2022-12-11T19:42:48.915Z,-5.40
2022-12-11T19:44:20.659Z,-5.40
2022-12-11T19:45:52.322Z,-5.44
2022-12-11T19:47:24.020Z,-5.33
2022-12-11T19:48:56.584Z,-5.44
2022-12-11T19:50:28.279Z,-5.47
2022-12-11T19:52:01.408Z,-5.70
2022-12-11T19:53:33.814Z,-5.52
2022-12-11T19:55:06.649Z,-5.47
2022-12-11T19:56:38.273Z,-5.40
2022-12-11T19:58:10.104Z,-5.43
2022-12-11T19:59:41.852Z,-5.39
2022-12-11T20:01:18.036Z,-5.41
2022-12-11T20:02:49.805Z,-5.35
2022-12-11T20:04:21.607Z,-5.35
2022-12-11T20:05:58.825Z,-5.36